createdAt,value
2019-04-03T00:00:40.705Z,75.14
2019-04-03T00:01:40.690Z,75.24
2019-04-03T00:02:40.639Z,75.24
2019-04-03T00:03:40.636Z,75.45
2019-04-03T00:04:40.619Z,74.52
2019-04-03T00:05:40.606Z,75.55
2019-04-03T00:06:40.632Z,75.24
2019-04-03T00:07:40.629Z,75.14
2019-04-03T00:08:40.567Z,75.34
2019-04-03T00:09:40.586Z,75.04
2019-04-03T00:10:40.545Z,75.34
2019-04-03T00:11:40.576Z,75.55
2019-04-03T00:12:41.259Z,74.32
2019-04-03T00:13:42.377Z,74.52
2019-04-03T00:14:42.233Z,74.32
2019-04-03T00:15:40.490Z,74.93
2019-04-03T00:16:40.477Z,75.14
2019-04-03T00:17:40.521Z,75.04
2019-04-03T00:18:40.562Z,74.73
2019-04-03T00:19:40.444Z,75.45
2019-04-03T00:20:40.476Z,75.65
2019-04-03T00:21:40.419Z,75.45
2019-04-03T00:22:40.410Z,75.04
2019-04-03T00:23:40.467Z,75.34
2019-04-03T00:24:40.385Z,74.93
2019-04-03T00:25:40.377Z,75.24
2019-04-03T00:26:40.446Z,75.24
2019-04-03T00:27:40.354Z,75.34
2019-04-03T00:28:40.340Z,75.24
2019-04-03T00:29:40.337Z,74.43
2019-04-03T00:30:40.319Z,74.22
2019-04-03T00:31:40.351Z,73.91
2019-04-03T00:32:40.294Z,73.81
2019-04-03T00:33:40.285Z,73.81
2019-04-03T00:34:40.274Z,74.11
2019-04-03T00:35:40.303Z,74.32
2019-04-03T00:36:40.293Z,74.32
2019-04-03T00:37:40.256Z,73.71
2019-04-03T00:38:40.226Z,74.11
2019-04-03T00:39:40.217Z,74.32
2019-04-03T00:40:40.361Z,74.22
2019-04-03T00:41:40.199Z,73.64
2019-04-03T00:42:40.223Z,74.11
2019-04-03T00:43:40.204Z,74.22
2019-04-03T00:44:40.158Z,73.94
2019-04-03T00:45:40.190Z,74.02
2019-04-03T00:46:40.139Z,74.26
2019-04-03T00:47:40.126Z,74.02
2019-04-03T00:48:40.116Z,74.05
2019-04-03T00:49:40.102Z,73.71
2019-04-03T00:50:40.095Z,73.81
2019-04-03T00:51:40.122Z,74.43
2019-04-03T00:52:40.072Z,73.50
2019-04-03T00:53:40.056Z,73.30
2019-04-03T00:54:40.059Z,73.64
2019-04-03T00:55:40.034Z,73.74
2019-04-03T00:56:40.139Z,73.94
2019-04-03T00:57:40.052Z,73.94
2019-04-03T00:58:40.005Z,73.54
2019-04-03T00:59:39.989Z,74.05
2019-04-03T01:00:40.017Z,74.05
2019-04-03T01:01:39.972Z,74.76
2019-04-03T01:02:39.957Z,74.35
2019-04-03T01:03:39.948Z,74.19
2019-04-03T01:04:39.934Z,74.66
2019-04-03T01:05:39.923Z,74.60
2019-04-03T01:06:39.965Z,74.60
2019-04-03T01:07:39.900Z,74.60
2019-04-03T01:08:39.889Z,74.80
2019-04-03T01:09:39.876Z,74.49
2019-04-03T01:10:39.864Z,73.47
2019-04-03T01:11:39.855Z,71.01
2019-04-03T01:12:39.887Z,72.11
2019-04-03T01:13:39.829Z,71.90
2019-04-03T01:14:39.822Z,71.90
2019-04-03T01:15:39.808Z,72.11
2019-04-03T01:16:39.804Z,72.82
2019-04-03T01:17:39.847Z,72.00
2019-04-03T01:18:39.772Z,70.26
2019-04-03T01:19:39.763Z,70.57
2019-04-03T01:20:39.754Z,70.06
2019-04-03T01:21:39.786Z,69.55
2019-04-03T01:22:39.738Z,69.96
2019-04-03T01:23:39.719Z,69.55
2019-04-03T01:24:39.705Z,69.55
2019-04-03T01:25:40.172Z,69.68
2019-04-03T01:26:40.655Z,69.07
2019-04-03T01:27:41.449Z,68.93
2019-04-03T01:28:41.610Z,69.48
2019-04-03T01:29:42.192Z,69.68
2019-04-03T01:30:39.640Z,69.38
2019-04-03T01:31:39.669Z,69.38
2019-04-03T01:32:39.657Z,69.27
2019-04-03T01:33:39.648Z,69.07
2019-04-03T01:34:39.595Z,68.97
2019-04-03T01:35:39.585Z,69.27
2019-04-03T01:36:39.568Z,69.07
2019-04-03T01:37:39.557Z,69.20
2019-04-03T01:38:39.587Z,69.51
2019-04-03T01:39:39.540Z,68.97
2019-04-03T01:40:39.530Z,69.20
2019-04-03T01:41:39.522Z,69.00
2019-04-03T01:42:39.503Z,69.00
2019-04-03T01:43:39.538Z,69.82
2019-04-03T01:44:39.483Z,69.61
2019-04-03T01:45:39.473Z,69.61
2019-04-03T01:46:39.465Z,69.82
2019-04-03T01:47:39.445Z,69.71
2019-04-03T01:48:39.436Z,69.61
2019-04-03T01:49:39.465Z,69.10
2019-04-03T01:50:39.414Z,70.23
2019-04-03T01:51:39.442Z,70.12
2019-04-03T01:52:39.390Z,69.51
2019-04-03T01:53:39.377Z,69.82
2019-04-03T01:54:39.408Z,70.03
2019-04-03T01:55:39.358Z,70.23
2019-04-03T01:56:39.351Z,70.03
2019-04-03T01:57:39.497Z,70.03
2019-04-03T01:58:39.321Z,70.03
2019-04-03T01:59:39.446Z,69.71
2019-04-03T02:00:39.343Z,70.33
2019-04-03T02:01:39.291Z,70.43
2019-04-03T02:02:39.536Z,70.74
2019-04-03T02:03:41.173Z,70.74
2019-04-03T02:04:42.004Z,70.26
2019-04-03T02:05:39.409Z,70.36
2019-04-03T02:06:39.276Z,70.84
2019-04-03T02:07:39.230Z,70.47
2019-04-03T02:08:39.266Z,70.43
2019-04-03T02:09:39.239Z,69.92
2019-04-03T02:10:39.186Z,69.92
2019-04-03T02:11:39.179Z,70.43
2019-04-03T02:12:39.166Z,70.36
2019-04-03T02:13:39.173Z,70.84
2019-04-03T02:14:39.143Z,70.33
2019-04-03T02:15:39.179Z,70.57
2019-04-03T02:16:39.120Z,71.59
2019-04-03T02:17:39.109Z,70.87
2019-04-03T02:18:39.099Z,69.85
2019-04-03T02:19:39.329Z,71.69
2019-04-03T02:20:39.077Z,70.77
2019-04-03T02:21:39.128Z,70.87
2019-04-03T02:22:39.059Z,71.49
2019-04-03T02:23:39.235Z,70.06
2019-04-03T02:24:39.032Z,70.06
2019-04-03T02:25:39.056Z,70.36
2019-04-03T02:26:39.005Z,69.61
2019-04-03T02:27:39.035Z,70.26
2019-04-03T02:28:38.983Z,69.71
2019-04-03T02:29:39.811Z,70.06
2019-04-03T02:30:38.971Z,69.54
2019-04-03T02:31:38.957Z,70.06
2019-04-03T02:32:38.938Z,70.26
2019-04-03T02:33:38.991Z,69.75
2019-04-03T02:34:38.914Z,70.26
2019-04-03T02:35:40.108Z,70.36
2019-04-03T02:36:39.148Z,70.36
2019-04-03T02:37:38.886Z,70.26
2019-04-03T02:38:38.933Z,69.95
2019-04-03T02:39:39.020Z,69.95
2019-04-03T02:40:38.850Z,69.95
2019-04-03T02:41:38.847Z,69.82
2019-04-03T02:42:41.240Z,69.92
2019-04-03T02:43:38.902Z,69.95
2019-04-03T02:44:39.023Z,69.95
2019-04-03T02:45:38.792Z,69.95
2019-04-03T02:46:38.801Z,70.16
2019-04-03T02:47:38.961Z,69.95
2019-04-03T02:48:38.999Z,70.36
2019-04-03T02:49:41.488Z,69.85
2019-04-03T02:50:38.788Z,70.47
2019-04-03T02:51:38.721Z,70.16
2019-04-03T02:52:38.755Z,70.36
2019-04-03T02:53:38.785Z,70.36
2019-04-03T02:54:38.692Z,70.06
2019-04-03T02:55:39.826Z,70.87
2019-04-03T02:56:38.671Z,70.67
2019-04-03T02:57:38.706Z,70.26
2019-04-03T02:58:38.684Z,70.47
2019-04-03T02:59:38.635Z,70.67
2019-04-03T03:00:38.671Z,70.36
2019-04-03T03:01:39.817Z,70.47
2019-04-03T03:02:38.738Z,70.67
2019-04-03T03:03:38.589Z,70.26
2019-04-03T03:04:38.576Z,70.47
2019-04-03T03:05:38.719Z,70.67
2019-04-03T03:06:38.550Z,70.29
2019-04-03T03:07:38.844Z,70.98
2019-04-03T03:08:41.681Z,71.39
2019-04-03T03:09:38.635Z,70.81
2019-04-03T03:10:38.508Z,71.62
2019-04-03T03:11:38.495Z,71.73
2019-04-03T03:12:38.828Z,71.52
2019-04-03T03:13:38.510Z,72.00
2019-04-03T03:14:39.784Z,71.62
2019-04-03T03:15:38.459Z,71.83
2019-04-03T03:16:38.444Z,71.11
2019-04-03T03:17:38.464Z,71.62
2019-04-03T03:18:38.419Z,72.03
2019-04-03T03:19:38.452Z,71.62
2019-04-03T03:20:40.359Z,71.73
2019-04-03T03:21:38.380Z,71.62
2019-04-03T03:22:38.373Z,72.14
2019-04-03T03:23:38.362Z,71.62
2019-04-03T03:24:38.678Z,71.93
2019-04-03T03:25:38.381Z,71.42
2019-04-03T03:26:38.371Z,71.32
2019-04-03T03:27:41.668Z,72.24
2019-04-03T03:28:38.354Z,72.14
2019-04-03T03:29:38.335Z,72.41
2019-04-03T03:30:45.518Z,71.80
2019-04-03T03:32:03.110Z,72.72
2019-04-03T03:32:39.882Z,71.18
2019-04-03T03:33:40.400Z,72.00
2019-04-03T03:34:54.727Z,71.90
2019-04-03T03:35:44.941Z,72.14
2019-04-03T03:36:39.354Z,71.93
2019-04-03T03:37:38.549Z,73.57
2019-04-03T03:38:39.872Z,72.72
2019-04-03T03:39:38.330Z,73.44
2019-04-03T03:40:38.309Z,73.33
2019-04-03T03:41:38.376Z,71.90
2019-04-03T03:42:38.226Z,72.31
2019-04-03T03:43:38.951Z,72.72
2019-04-03T03:44:38.221Z,73.03
2019-04-03T03:45:38.295Z,73.03
2019-04-03T03:46:38.446Z,72.92
2019-04-03T03:47:38.095Z,72.72
2019-04-03T03:48:42.454Z,73.64
2019-04-03T03:49:39.093Z,73.54
2019-04-03T03:50:38.058Z,73.64
2019-04-03T03:51:38.090Z,73.54
2019-04-03T03:52:38.594Z,73.85
2019-04-03T03:53:38.093Z,74.05
2019-04-03T03:54:38.457Z,74.70
2019-04-03T03:55:38.048Z,74.66
2019-04-03T03:56:38.222Z,74.08
2019-04-03T03:57:39.694Z,75.11
2019-04-03T03:58:38.014Z,74.49
2019-04-03T03:59:37.956Z,74.29
2019-04-03T04:00:37.946Z,74.29
2019-04-03T04:01:37.977Z,74.08
2019-04-03T04:02:42.489Z,74.49
2019-04-03T04:03:41.104Z,74.49
2019-04-03T04:04:37.916Z,75.52
2019-04-03T04:05:37.890Z,75.42
2019-04-03T04:06:37.918Z,75.62
2019-04-03T04:07:38.351Z,75.52
2019-04-03T04:08:37.854Z,75.52
2019-04-03T04:09:38.016Z,75.82
2019-04-03T04:10:37.832Z,75.62
2019-04-03T04:11:37.865Z,75.93
2019-04-03T04:12:41.233Z,75.93
2019-04-03T04:13:37.866Z,75.82
2019-04-03T04:14:38.231Z,76.24
2019-04-03T04:15:37.974Z,76.44
2019-04-03T04:16:38.362Z,76.51
2019-04-03T04:17:38.041Z,76.72
2019-04-03T04:18:38.200Z,75.89
2019-04-03T04:19:37.829Z,75.99
2019-04-03T04:20:38.487Z,75.69
2019-04-03T04:21:37.714Z,75.48
2019-04-03T04:22:37.745Z,75.79
2019-04-03T04:23:37.687Z,75.82
2019-04-03T04:24:38.209Z,75.93
2019-04-03T04:25:37.817Z,76.65
2019-04-03T04:26:37.700Z,76.72
2019-04-03T04:27:39.005Z,76.40
2019-04-03T04:28:39.536Z,74.05
2019-04-03T04:29:37.727Z,73.95
2019-04-03T04:30:37.607Z,72.41
2019-04-03T04:31:37.635Z,72.72
2019-04-03T04:32:37.819Z,72.20
2019-04-03T04:33:37.573Z,72.20
2019-04-03T04:34:37.567Z,72.96
2019-04-03T04:35:37.550Z,73.27
2019-04-03T04:36:37.748Z,73.98
2019-04-03T04:37:40.030Z,73.88
2019-04-03T04:38:37.515Z,73.36
2019-04-03T04:39:37.516Z,73.68
2019-04-03T04:40:37.495Z,75.31
2019-04-03T04:41:37.524Z,73.88
2019-04-03T04:42:37.470Z,73.98
2019-04-03T04:43:37.652Z,74.19
2019-04-03T04:44:38.874Z,74.19
2019-04-03T04:45:37.435Z,73.88
2019-04-03T04:46:37.428Z,74.39
2019-04-03T04:47:37.462Z,74.39
2019-04-03T04:48:37.635Z,74.80
2019-04-03T04:49:37.433Z,74.60
2019-04-03T04:50:37.379Z,75.73
2019-04-03T04:51:37.369Z,74.39
2019-04-03T04:52:37.358Z,74.60
2019-04-03T04:53:37.353Z,75.01
2019-04-03T04:54:37.374Z,74.70
2019-04-03T04:55:37.490Z,74.94
2019-04-03T04:56:38.119Z,75.76
2019-04-03T04:57:40.153Z,75.31
2019-04-03T04:58:37.318Z,75.86
2019-04-03T04:59:37.325Z,76.24
2019-04-03T05:00:37.266Z,76.48
2019-04-03T05:01:37.268Z,76.78
2019-04-03T05:02:37.253Z,76.78
2019-04-03T05:03:37.417Z,77.09
2019-04-03T05:04:37.237Z,76.68
2019-04-03T05:05:37.267Z,77.29
2019-04-03T05:06:37.249Z,78.16
2019-04-03T05:07:37.273Z,78.12
2019-04-03T05:08:37.185Z,77.64
2019-04-03T05:09:37.238Z,78.32
2019-04-03T05:10:37.366Z,78.63
2019-04-03T05:11:39.071Z,79.08
2019-04-03T05:12:38.985Z,79.90
2019-04-03T05:13:37.121Z,78.87
2019-04-03T05:14:37.122Z,78.46
2019-04-03T05:15:37.314Z,77.84
2019-04-03T05:16:37.113Z,77.64
2019-04-03T05:17:37.327Z,78.02
2019-04-03T05:18:37.114Z,78.32
2019-04-03T05:19:37.189Z,78.36
2019-04-03T05:20:37.044Z,76.99
2019-04-03T05:21:37.033Z,77.40
2019-04-03T05:22:37.049Z,77.61
2019-04-03T05:23:37.028Z,77.71
2019-04-03T05:24:37.009Z,77.09
2019-04-03T05:25:37.030Z,78.12
2019-04-03T05:26:36.991Z,78.25
2019-04-03T05:27:36.965Z,78.56
2019-04-03T05:28:37.008Z,79.38
2019-04-03T05:29:37.205Z,79.59
2019-04-03T05:30:37.942Z,79.28
2019-04-03T05:31:38.905Z,78.87
2019-04-03T05:32:36.948Z,79.08
2019-04-03T05:33:36.905Z,79.08
2019-04-03T05:34:36.953Z,79.08
2019-04-03T05:35:37.660Z,79.18
2019-04-03T05:36:36.875Z,78.97
2019-04-03T05:37:36.931Z,79.18
2019-04-03T05:38:38.086Z,80.10
2019-04-03T05:39:36.845Z,79.08
2019-04-03T05:40:36.828Z,78.46
2019-04-03T05:41:36.811Z,79.42
2019-04-03T05:42:36.805Z,79.73
2019-04-03T05:43:36.792Z,80.69
2019-04-03T05:44:36.818Z,81.51
2019-04-03T05:45:36.768Z,82.40
2019-04-03T05:46:37.655Z,81.78
2019-04-03T05:47:38.851Z,81.62
2019-04-03T05:48:36.928Z,82.09
2019-04-03T05:49:36.732Z,80.90
2019-04-03T05:50:37.117Z,81.99
2019-04-03T05:51:36.858Z,82.23
2019-04-03T05:52:36.955Z,82.19
2019-04-03T05:53:37.861Z,82.09
2019-04-03T05:54:38.780Z,82.43
2019-04-03T05:55:36.684Z,82.43
2019-04-03T05:56:36.646Z,82.43
2019-04-03T05:57:36.775Z,82.54
2019-04-03T05:58:36.619Z,82.43
2019-04-03T05:59:36.662Z,83.05
2019-04-03T06:00:38.182Z,82.75
2019-04-03T06:01:36.784Z,82.95
2019-04-03T06:02:36.591Z,82.99
2019-04-03T06:03:42.163Z,82.89
2019-04-03T06:04:40.163Z,83.81
2019-04-03T06:05:36.633Z,84.42
2019-04-03T06:06:36.560Z,84.49
2019-04-03T06:07:36.522Z,84.01
2019-04-03T06:08:36.533Z,84.94
2019-04-03T06:09:36.621Z,84.84
2019-04-03T06:10:37.579Z,84.84
2019-04-03T06:11:36.555Z,85.25
2019-04-03T06:12:37.708Z,85.39
2019-04-03T06:13:36.547Z,85.39
2019-04-03T06:14:37.120Z,85.43
2019-04-03T06:15:36.454Z,85.90
2019-04-03T06:16:36.482Z,86.93
2019-04-03T06:17:36.467Z,86.52
2019-04-03T06:18:36.547Z,86.11
2019-04-03T06:19:39.254Z,86.32
2019-04-03T06:20:36.414Z,87.10
2019-04-03T06:21:36.370Z,86.38
2019-04-03T06:22:36.681Z,85.80
2019-04-03T06:23:36.490Z,86.93
2019-04-03T06:24:36.408Z,87.45
2019-04-03T06:25:36.321Z,87.38
2019-04-03T06:26:38.030Z,87.75
2019-04-03T06:27:36.425Z,88.37
2019-04-03T06:28:36.377Z,87.34
2019-04-03T06:29:36.275Z,88.00
2019-04-03T06:30:36.268Z,88.17
2019-04-03T06:31:36.405Z,87.96
2019-04-03T06:32:36.492Z,88.17
2019-04-03T06:33:36.689Z,88.89
2019-04-03T06:34:38.417Z,88.82
2019-04-03T06:35:36.258Z,89.23
2019-04-03T06:36:36.200Z,89.70
2019-04-03T06:37:36.268Z,89.70
2019-04-03T06:38:36.188Z,89.50
2019-04-03T06:39:36.254Z,89.19
2019-04-03T06:40:36.354Z,89.23
2019-04-03T06:41:36.201Z,89.03
2019-04-03T06:42:36.185Z,89.75
2019-04-03T06:43:36.145Z,89.50
2019-04-03T06:44:36.131Z,89.34
2019-04-03T06:45:36.103Z,87.90
2019-04-03T06:46:36.089Z,88.41
2019-04-03T06:47:36.087Z,89.23
2019-04-03T06:48:37.168Z,90.36
2019-04-03T06:49:36.102Z,90.47
2019-04-03T06:50:36.046Z,90.47
2019-04-03T06:51:36.053Z,90.78
2019-04-03T06:52:36.264Z,89.64
2019-04-03T06:53:36.019Z,89.54
2019-04-03T06:54:36.241Z,89.95
2019-04-03T06:55:36.559Z,89.34
2019-04-03T06:56:36.018Z,88.96
2019-04-03T06:57:35.971Z,89.58
2019-04-03T06:58:38.679Z,89.38
2019-04-03T06:59:35.943Z,89.69
2019-04-03T07:00:35.952Z,90.51
2019-04-03T07:01:36.048Z,90.41
2019-04-03T07:02:35.925Z,90.00
2019-04-03T07:03:35.928Z,89.69
2019-04-03T07:04:37.500Z,89.79
2019-04-03T07:05:35.876Z,89.75
2019-04-03T07:06:35.923Z,90.26
2019-04-03T07:07:36.154Z,90.26
2019-04-03T07:08:38.089Z,90.67
2019-04-03T07:09:36.926Z,90.57
2019-04-03T07:10:36.492Z,89.64
2019-04-03T07:11:35.853Z,89.85
2019-04-03T07:12:35.931Z,89.58
2019-04-03T07:13:36.056Z,89.34
2019-04-03T07:14:35.852Z,89.85
2019-04-03T07:15:35.785Z,89.64
2019-04-03T07:16:38.171Z,89.34
2019-04-03T07:17:35.990Z,89.75
2019-04-03T07:18:37.030Z,89.75
2019-04-03T07:19:35.735Z,88.82
2019-04-03T07:20:35.717Z,88.31
2019-04-03T07:21:35.765Z,88.41
2019-04-03T07:22:35.695Z,87.38
2019-04-03T07:23:35.868Z,87.49
2019-04-03T07:24:35.711Z,87.38
2019-04-03T07:25:35.822Z,87.24
2019-04-03T07:26:36.297Z,87.69
2019-04-03T07:27:37.431Z,87.55
2019-04-03T07:28:35.691Z,87.65
2019-04-03T07:29:35.628Z,87.59
2019-04-03T07:30:35.607Z,87.69
2019-04-03T07:31:35.896Z,88.17
2019-04-03T07:32:35.712Z,88.37
2019-04-03T07:33:35.605Z,88.00
2019-04-03T07:34:35.563Z,87.04
2019-04-03T07:35:35.559Z,87.45
2019-04-03T07:36:35.590Z,87.55
2019-04-03T07:37:35.581Z,87.49
2019-04-03T07:38:35.522Z,86.93
2019-04-03T07:39:35.526Z,87.45
2019-04-03T07:40:35.561Z,87.34
2019-04-03T07:41:35.521Z,87.24
2019-04-03T07:42:35.654Z,87.24
2019-04-03T07:43:35.697Z,88.33
2019-04-03T07:44:35.444Z,88.49
2019-04-03T07:45:35.490Z,87.98
2019-04-03T07:46:35.635Z,87.20
2019-04-03T07:47:35.837Z,87.40
2019-04-03T07:48:37.158Z,88.39
2019-04-03T07:49:35.421Z,88.08
2019-04-03T07:50:36.969Z,89.37
2019-04-03T07:51:35.634Z,88.56
2019-04-03T07:52:35.419Z,88.56
2019-04-03T07:53:35.371Z,87.79
2019-04-03T07:54:35.354Z,87.94
2019-04-03T07:55:35.599Z,87.32
2019-04-03T07:56:35.365Z,87.43
2019-04-03T07:57:36.700Z,86.36
2019-04-03T07:58:35.304Z,86.57
2019-04-03T07:59:35.287Z,85.74
2019-04-03T08:00:36.306Z,85.44
2019-04-03T08:01:35.271Z,85.27
2019-04-03T08:02:35.256Z,85.47
2019-04-03T08:03:35.343Z,86.40
2019-04-03T08:04:35.437Z,86.40
2019-04-03T08:05:35.423Z,86.77
2019-04-03T08:06:36.322Z,86.36
2019-04-03T08:07:35.233Z,84.92
2019-04-03T08:08:35.183Z,85.13
2019-04-03T08:09:35.176Z,85.30
2019-04-03T08:10:37.266Z,83.96
2019-04-03T08:11:37.259Z,83.86
2019-04-03T08:12:35.909Z,84.37
2019-04-03T08:13:37.402Z,84.47
2019-04-03T08:14:35.122Z,84.12
2019-04-03T08:15:35.289Z,83.76
2019-04-03T08:16:35.134Z,85.15
2019-04-03T08:17:35.088Z,83.61
2019-04-03T08:18:35.142Z,84.64
2019-04-03T08:19:35.053Z,85.05
2019-04-03T08:20:35.096Z,85.36
2019-04-03T08:21:35.034Z,84.84
2019-04-03T08:22:35.030Z,83.92
2019-04-03T08:23:36.758Z,83.61
2019-04-03T08:24:35.043Z,84.80
2019-04-03T08:25:35.103Z,83.37
2019-04-03T08:26:35.033Z,82.76
2019-04-03T08:27:34.966Z,82.65
2019-04-03T08:28:35.010Z,82.24
2019-04-03T08:29:38.035Z,82.21
2019-04-03T08:30:35.005Z,81.79
2019-04-03T08:31:35.140Z,80.67
2019-04-03T08:32:34.923Z,80.22
2019-04-03T08:33:34.900Z,80.53
2019-04-03T08:34:34.934Z,80.33
2019-04-03T08:35:35.875Z,79.20
2019-04-03T08:36:35.256Z,78.69
2019-04-03T08:37:34.849Z,79.75
2019-04-03T08:38:35.232Z,81.18
2019-04-03T08:39:35.049Z,79.85
2019-04-03T08:40:34.867Z,78.83
2019-04-03T08:41:36.906Z,78.25
2019-04-03T08:42:34.801Z,78.93
2019-04-03T08:43:34.852Z,78.21
2019-04-03T08:44:35.741Z,76.57
2019-04-03T08:45:37.829Z,76.68
2019-04-03T08:46:34.763Z,76.98
2019-04-03T08:47:37.117Z,76.88
2019-04-03T08:48:34.743Z,76.68
2019-04-03T08:49:34.970Z,78.42
2019-04-03T08:50:34.711Z,76.78
2019-04-03T08:51:34.992Z,76.81
2019-04-03T08:52:36.942Z,77.57
2019-04-03T08:53:34.785Z,78.39
2019-04-03T08:54:34.663Z,76.75
2019-04-03T08:55:34.649Z,77.12
2019-04-03T08:56:34.642Z,77.64
2019-04-03T08:57:34.677Z,76.40
2019-04-03T08:58:34.775Z,78.15
2019-04-03T08:59:34.973Z,77.19
2019-04-03T09:00:34.937Z,76.98
2019-04-03T09:01:37.103Z,76.43
2019-04-03T09:02:34.614Z,76.47
2019-04-03T09:03:34.578Z,76.13
2019-04-03T09:04:34.802Z,75.31
2019-04-03T09:05:34.538Z,76.43
2019-04-03T09:06:34.523Z,75.76
2019-04-03T09:07:34.773Z,76.54
2019-04-03T09:08:34.563Z,76.13
2019-04-03T09:09:35.713Z,75.62
2019-04-03T09:10:36.710Z,75.42
2019-04-03T09:11:36.314Z,76.64
2019-04-03T09:12:37.603Z,77.05
2019-04-03T09:13:34.645Z,76.95
2019-04-03T09:14:34.891Z,77.05
2019-04-03T09:15:34.426Z,77.26
2019-04-03T09:16:34.560Z,78.17
2019-04-03T09:17:34.739Z,77.63
2019-04-03T09:18:37.850Z,76.43
2019-04-03T09:19:34.378Z,77.36
2019-04-03T09:20:36.082Z,76.95
2019-04-03T09:21:34.366Z,75.82
2019-04-03T09:22:34.415Z,75.31
2019-04-03T09:23:34.382Z,75.65
2019-04-03T09:24:34.323Z,76.27
2019-04-03T09:25:34.344Z,77.02
2019-04-03T09:26:37.131Z,75.76
2019-04-03T09:27:34.303Z,75.65
2019-04-03T09:28:34.392Z,76.68
2019-04-03T09:29:34.264Z,76.31
2019-04-03T09:30:34.279Z,77.02
2019-04-03T09:31:34.252Z,76.20
2019-04-03T09:32:36.883Z,77.67
2019-04-03T09:33:34.233Z,78.56
2019-04-03T09:34:34.836Z,76.75
2019-04-03T09:35:34.353Z,76.81
2019-04-03T09:36:34.880Z,76.72
2019-04-03T09:37:36.871Z,77.02
2019-04-03T09:38:36.100Z,77.02
2019-04-03T09:39:34.150Z,76.61
2019-04-03T09:40:34.279Z,76.31
2019-04-03T09:41:34.134Z,76.20
2019-04-03T09:42:34.126Z,76.47
2019-04-03T09:43:34.374Z,76.47
2019-04-03T09:44:34.201Z,76.17
2019-04-03T09:45:34.513Z,75.45
2019-04-03T09:46:34.082Z,76.47
2019-04-03T09:47:34.935Z,76.37
2019-04-03T09:48:34.870Z,77.36
2019-04-03T09:49:34.046Z,75.93
2019-04-03T09:50:34.083Z,75.55
2019-04-03T09:51:34.018Z,75.35
2019-04-03T09:52:41.649Z,75.76
2019-04-03T09:53:34.997Z,77.15
2019-04-03T09:54:34.028Z,75.93
2019-04-03T09:55:36.975Z,74.08
2019-04-03T09:56:36.736Z,75.38
2019-04-03T09:57:34.239Z,74.60
2019-04-03T09:58:35.608Z,76.03
2019-04-03T09:59:34.156Z,73.27
2019-04-03T10:00:34.191Z,76.23
2019-04-03T10:01:33.980Z,75.68
2019-04-03T10:02:34.252Z,74.05
2019-04-03T10:03:33.884Z,74.26
2019-04-03T10:04:33.869Z,74.26
2019-04-03T10:05:33.879Z,73.54
2019-04-03T10:06:33.845Z,74.35
2019-04-03T10:07:36.343Z,73.74
2019-04-03T10:08:33.927Z,74.22
2019-04-03T10:09:33.811Z,74.02
2019-04-03T10:10:33.818Z,74.22
2019-04-03T10:11:33.807Z,72.62
2019-04-03T10:12:33.800Z,73.54
2019-04-03T10:13:33.766Z,74.26
2019-04-03T10:14:33.803Z,75.27
2019-04-03T10:15:33.747Z,73.94
2019-04-03T10:16:35.570Z,73.64
2019-04-03T10:17:35.176Z,75.65
2019-04-03T10:18:33.781Z,74.56
2019-04-03T10:19:33.724Z,75.04
2019-04-03T10:20:33.746Z,74.63
2019-04-03T10:21:33.831Z,73.30
2019-04-03T10:22:33.725Z,73.20
2019-04-03T10:23:33.672Z,71.80
2019-04-03T10:24:33.651Z,73.47
2019-04-03T10:25:34.839Z,73.88
2019-04-03T10:26:33.961Z,73.98
2019-04-03T10:27:33.653Z,74.19
2019-04-03T10:28:33.644Z,74.19
2019-04-03T10:29:33.664Z,74.56
2019-04-03T10:30:33.577Z,73.98
2019-04-03T10:31:33.634Z,75.48
2019-04-03T10:32:33.621Z,75.27
2019-04-03T10:33:33.597Z,73.85
2019-04-03T10:34:35.682Z,74.35
2019-04-03T10:35:33.974Z,74.93
2019-04-03T10:36:33.565Z,74.08
2019-04-03T10:37:33.499Z,73.36
2019-04-03T10:38:33.750Z,72.96
2019-04-03T10:39:33.471Z,71.94
2019-04-03T10:40:33.458Z,72.34
2019-04-03T10:41:33.782Z,71.87
2019-04-03T10:42:33.713Z,72.24
2019-04-03T10:43:36.630Z,72.58
2019-04-03T10:44:33.490Z,73.16
2019-04-03T10:45:33.659Z,73.27
2019-04-03T10:46:33.446Z,72.31
2019-04-03T10:47:41.110Z,71.39
2019-04-03T10:48:34.373Z,71.87
2019-04-03T10:49:33.359Z,71.56
2019-04-03T10:50:36.474Z,71.56
2019-04-03T10:51:33.400Z,69.73
2019-04-03T10:52:33.324Z,71.43
2019-04-03T10:53:33.316Z,69.79
2019-04-03T10:54:33.303Z,70.00
2019-04-03T10:55:33.544Z,68.84
2019-04-03T10:56:33.434Z,68.20
2019-04-03T10:57:34.761Z,68.30
2019-04-03T10:58:33.399Z,68.10
2019-04-03T10:59:33.254Z,68.78
2019-04-03T11:00:33.228Z,68.37
2019-04-03T11:01:33.445Z,66.74
2019-04-03T11:02:33.618Z,68.10
2019-04-03T11:03:33.197Z,68.81
2019-04-03T11:04:33.197Z,68.68
2019-04-03T11:05:33.183Z,67.96
2019-04-03T11:06:35.208Z,67.73
2019-04-03T11:07:33.155Z,68.62
2019-04-03T11:08:33.185Z,69.73
2019-04-03T11:09:33.387Z,66.38
2019-04-03T11:10:33.146Z,66.38
2019-04-03T11:11:33.403Z,65.59
2019-04-03T11:12:33.313Z,67.46
2019-04-03T11:13:34.377Z,68.88
2019-04-03T11:14:33.134Z,67.66
2019-04-03T11:15:33.063Z,67.90
2019-04-03T11:16:33.214Z,67.69
2019-04-03T11:17:33.047Z,67.11
2019-04-03T11:18:33.026Z,67.14
2019-04-03T11:19:33.283Z,67.11
2019-04-03T11:20:35.677Z,67.52
2019-04-03T11:21:33.095Z,67.32
2019-04-03T11:23:39.812Z,67.93
2019-04-03T11:24:33.968Z,66.42
2019-04-03T11:25:32.977Z,66.63
2019-04-03T11:26:33.176Z,68.26
2019-04-03T11:28:37.066Z,69.56
2019-04-03T11:29:33.161Z,68.64
2019-04-03T11:30:32.903Z,68.81
2019-04-03T11:30:53.706Z,66.91
2019-04-03T11:30:54.598Z,68.95
2019-04-03T11:31:36.083Z,66.67
2019-04-03T11:32:34.058Z,67.29
2019-04-03T11:33:33.021Z,65.65
2019-04-03T11:34:32.845Z,65.25
2019-04-03T11:35:32.837Z,66.27
2019-04-03T11:36:32.832Z,66.88
2019-04-03T11:37:33.790Z,69.05
2019-04-03T11:38:32.802Z,68.40
2019-04-03T11:39:33.167Z,66.74
2019-04-03T11:40:32.784Z,65.62
2019-04-03T11:41:32.781Z,67.05
2019-04-03T11:42:32.756Z,65.31
2019-04-03T11:43:32.819Z,63.45
2019-04-03T11:44:32.845Z,65.42
2019-04-03T11:45:32.720Z,66.85
2019-04-03T11:46:32.714Z,66.13
2019-04-03T11:47:32.708Z,65.19
2019-04-03T11:48:32.693Z,65.59
2019-04-03T11:49:32.740Z,65.19
2019-04-03T11:50:32.663Z,65.39
2019-04-03T11:51:33.991Z,63.45
2019-04-03T11:52:32.668Z,64.70
2019-04-03T11:53:34.606Z,65.52
2019-04-03T11:54:32.861Z,65.11
2019-04-03T11:55:32.616Z,64.90
2019-04-03T11:56:32.621Z,64.94
2019-04-03T11:57:33.002Z,65.75
2019-04-03T11:58:32.632Z,64.84
2019-04-03T11:59:32.739Z,66.19
2019-04-03T12:00:32.556Z,66.36
2019-04-03T12:01:32.587Z,66.39
2019-04-03T12:02:32.950Z,64.97
2019-04-03T12:03:32.522Z,66.30
2019-04-03T12:04:32.515Z,65.78
2019-04-03T12:05:32.499Z,65.92
2019-04-03T12:06:32.483Z,66.42
2019-04-03T12:07:32.634Z,66.05
2019-04-03T12:08:32.518Z,65.64
2019-04-03T12:09:32.949Z,66.86
2019-04-03T12:10:34.141Z,67.79
2019-04-03T12:11:32.738Z,67.79
2019-04-03T12:12:32.728Z,66.39
2019-04-03T12:13:32.419Z,67.18
2019-04-03T12:14:32.401Z,67.82
2019-04-03T12:15:33.946Z,67.27
2019-04-03T12:16:32.636Z,66.90
2019-04-03T12:17:32.417Z,65.95
2019-04-03T12:18:34.150Z,65.37
2019-04-03T12:19:32.652Z,65.60
2019-04-03T12:20:32.700Z,66.49
2019-04-03T12:21:32.322Z,66.80
2019-04-03T12:22:32.305Z,66.69
2019-04-03T12:23:32.358Z,66.69
2019-04-03T12:24:32.598Z,66.69
2019-04-03T12:25:34.149Z,66.97
2019-04-03T12:26:32.258Z,67.76
2019-04-03T12:27:35.137Z,66.94
2019-04-03T12:28:32.238Z,65.31
2019-04-03T12:29:32.284Z,65.20
2019-04-03T12:30:32.566Z,64.87
2019-04-03T12:31:32.545Z,65.78
2019-04-03T12:32:39.281Z,65.68
2019-04-03T12:33:33.337Z,65.28
2019-04-03T12:34:32.177Z,64.97
2019-04-03T12:35:32.158Z,65.17
2019-04-03T12:36:32.640Z,65.68
2019-04-03T12:37:32.331Z,66.30
2019-04-03T12:38:32.175Z,65.04
2019-04-03T12:39:32.118Z,64.43
2019-04-03T12:40:32.868Z,63.92
2019-04-03T12:41:32.120Z,64.63
2019-04-03T12:42:32.106Z,63.71
2019-04-03T12:43:32.066Z,64.63
2019-04-03T12:44:32.056Z,64.43
2019-04-03T12:45:32.530Z,63.79
2019-04-03T12:46:33.424Z,63.68
2019-04-03T12:47:32.024Z,63.41
2019-04-03T12:48:32.172Z,64.32
2019-04-03T12:49:32.183Z,63.71
2019-04-03T12:50:32.002Z,63.20
2019-04-03T12:51:32.477Z,62.90
2019-04-03T12:52:31.985Z,63.71